Time;durP1;ratioP1;P1;durP2;ratioP2;P2;SDS_P1;SDS_P2;PMS_P1;PMS_P2;Temp;Humidity;BMP_temperature;BMP_pressure;BME280_temperature;BME280_humidity;BME280_pressure;Samples;Min_cycle;Max_cycle;Signal;HPM_P1;HPM_P2
2023/12/08 00:00:59;;;;;;;;;;;;;;;;;;137639;1272;22504;-81
2023/12/08 00:04:05;;;;;;;;;;;;;;;;;;137092;1272;22511;-82
2023/12/08 00:07:06;;;;;;;;;;;;;;;;;;137128;1272;22482;-81
2023/12/08 00:10:08;;;;;;;;;;;;;;;;;;137263;1272;22542;-82
2023/12/08 00:13:11;;;;;;;;;;;;;;;;;;137199;1272;22565;-81
2023/12/08 00:16:12;;;;;;;;;;;;;;;;;;137259;1272;22476;-80
2023/12/08 00:19:13;;;;;;;;;;;;;;;;;;137078;1272;22562;-82
2023/12/08 00:22:15;;;;;;;;;;;;;;;;;;137594;1272;23008;-81
2023/12/08 00:25:16;;;;;;;;;;;;;;;;;;137307;1261;22551;-81
2023/12/08 00:28:17;;;;;;;;;;;;;;;;;;137022;1260;22529;-81
2023/12/08 00:31:18;;;;;;;;;;;;;;;;;;137520;1272;22868;-80
2023/12/08 00:34:19;;;;;;;;;;;;;;;;;;137252;1272;22503;-80
2023/12/08 00:37:21;;;;;;;;;;;;;;;;;;136966;1272;22495;-82
2023/12/08 00:40:22;;;;;;;;;;;;;;;;;;137473;1272;22528;-81
2023/12/08 00:43:23;;;;;;;;;;;;;;;;;;137157;1272;22540;-81
2023/12/08 00:46:24;;;;;;;;;;;;;;;;;;137012;1272;22498;-81
2023/12/08 00:49:25;;;;;;;;;;;;;;;;;;137169;1272;22514;-85
2023/12/08 00:52:26;;;;;;;;;;;;;;;;;;137466;1272;22494;-81
2023/12/08 00:55:27;;;;;;;;;;;;;;;;;;136949;1272;24290;-81
2023/12/08 00:58:28;;;;;;;;;;;;;;;;;;136948;1272;23274;-82
2023/12/08 01:01:29;;;;;;;;;;;;;;;;;;137643;1272;22489;-82
2023/12/08 01:04:30;;;;;;;;;;;;;;;;;;136904;1272;22534;-81
2023/12/08 01:07:31;;;;;;;;;;;;;;;;;;136955;1272;23025;-81
2023/12/08 01:10:32;;;;;;;;;;;;;;;;;;137535;1272;22521;-82
2023/12/08 01:13:34;;;;;;;;;;;;;;;;;;137001;1272;23077;-80
2023/12/08 01:16:35;;;;;;;;;;;;;;;;;;136903;1272;23008;-82
2023/12/08 01:19:36;;;;;;;;;;;;;;;;;;137334;1272;22533;-83
2023/12/08 01:22:37;;;;;;;;;;;;;;;;;;137286;1272;23033;-83
2023/12/08 01:25:38;;;;;;;;;;;;;;;;;;136912;1272;22523;-80
2023/12/08 01:28:39;;;;;;;;;;;;;;;;;;136914;1272;22518;-83
2023/12/08 01:31:40;;;;;;;;;;;;;;;;;;137575;1272;22938;-82
2023/12/08 01:34:42;;;;;;;;;;;;;;;;;;136971;1268;22854;-81
2023/12/08 01:37:43;;;;;;;;;;;;;;;;;;136928;1272;22973;-83
2023/12/08 01:40:44;;;;;;;;;;;;;;;;;;137581;1272;22507;-82
2023/12/08 01:43:45;;;;;;;;;;;;;;;;;;136922;1272;22539;-81
2023/12/08 01:46:46;;;;;;;;;;;;;;;;;;136774;1272;22536;-80
2023/12/08 01:49:48;;;;;;;;;;;;;;;;;;137423;1272;22668;-80
2023/12/08 01:52:49;;;;;;;;;;;;;;;;;;137191;1272;22507;-80
2023/12/08 01:55:50;;;;;;;;;;;;;;;;;;136909;1272;22504;-82
2023/12/08 01:58:51;;;;;;;;;;;;;;;;;;137278;1272;23268;-83
2023/12/08 02:01:52;;;;;;;;;;;;;;;;;;137423;1268;22511;-82
2023/12/08 02:04:53;;;;;;;;;;;;;;;;;;136959;1272;22498;-82
2023/12/08 02:07:54;;;;;;;;;;;;;;;;;;136951;1272;22502;-83
2023/12/08 02:10:55;;;;;;;;;;;;;;;;;;137587;1272;22498;-80
2023/12/08 02:13:56;;;;;;;;;;;;;;;;;;136946;1272;22548;-81
2023/12/08 02:16:58;;;;;;;;;;;;;;;;;;136941;1272;22518;-82
2023/12/08 02:19:59;;;;;;;;;;;;;;;;;;137634;1272;22514;-82
2023/12/08 02:23:00;;;;;;;;;;;;;;;;;;137017;1272;22902;-82
2023/12/08 02:26:02;;;;;;;;;;;;;;;;;;136953;1272;22508;-82
2023/12/08 02:29:05;;;;;;;;;;;;;;;;;;137437;1272;22552;-83
2023/12/08 02:32:07;;;;;;;;;;;;;;;;;;137313;1272;22556;-81
2023/12/08 02:35:08;;;;;;;;;;;;;;;;;;136902;1272;22561;-82
2023/12/08 02:38:09;;;;;;;;;;;;;;;;;;137021;1272;22519;-83
2023/12/08 02:41:10;;;;;;;;;;;;;;;;;;137353;1272;22513;-82
2023/12/08 02:44:11;;;;;;;;;;;;;;;;;;137219;1272;22555;-81
2023/12/08 02:47:12;;;;;;;;;;;;;;;;;;137276;1272;22532;-82
2023/12/08 02:50:13;;;;;;;;;;;;;;;;;;137356;1272;22514;-81
2023/12/08 02:53:14;;;;;;;;;;;;;;;;;;137001;1272;22571;-81
2023/12/08 02:56:15;;;;;;;;;;;;;;;;;;136906;1272;22516;-81
2023/12/08 02:59:16;;;;;;;;;;;;;;;;;;137482;1272;22553;-82
2023/12/08 03:02:17;;;;;;;;;;;;;;;;;;137141;1272;22553;-81
2023/12/08 03:05:19;;;;;;;;;;;;;;;;;;136956;1272;22965;-84
2023/12/08 03:08:20;;;;;;;;;;;;;;;;;;137216;1272;24693;-84
2023/12/08 03:11:21;;;;;;;;;;;;;;;;;;137387;1272;22528;-80
2023/12/08 03:14:22;;;;;;;;;;;;;;;;;;137018;1272;22865;-81
2023/12/08 03:17:23;;;;;;;;;;;;;;;;;;137042;1272;22500;-81
2023/12/08 03:20:24;;;;;;;;;;;;;;;;;;137564;1272;22537;-82
2023/12/08 03:23:25;;;;;;;;;;;;;;;;;;136963;1272;22606;-82
2023/12/08 03:26:26;;;;;;;;;;;;;;;;;;136851;1272;22540;-79
2023/12/08 03:29:27;;;;;;;;;;;;;;;;;;137514;1272;22684;-81
2023/12/08 03:32:29;;;;;;;;;;;;;;;;;;137103;1272;22538;-79
2023/12/08 03:35:30;;;;;;;;;;;;;;;;;;137215;1272;22553;-81
2023/12/08 03:38:31;;;;;;;;;;;;;;;;;;137367;1272;22996;-82
2023/12/08 03:41:32;;;;;;;;;;;;;;;;;;137223;1272;23054;-82
2023/12/08 03:44:33;;;;;;;;;;;;;;;;;;136983;1272;22501;-80
2023/12/08 03:47:34;;;;;;;;;;;;;;;;;;137305;1272;24165;-80
2023/12/08 03:50:35;;;;;;;;;;;;;;;;;;137568;1272;22481;-80
2023/12/08 03:53:36;;;;;;;;;;;;;;;;;;137339;1272;22907;-81
2023/12/08 03:56:37;;;;;;;;;;;;;;;;;;136945;1272;22564;-82
2023/12/08 03:59:38;;;;;;;;;;;;;;;;;;137635;1272;22513;-79
2023/12/08 04:02:42;;;;;;;;;;;;;;;;;;136896;1272;22529;-79
2023/12/08 04:05:43;;;;;;;;;;;;;;;;;;136862;1272;22519;-80
2023/12/08 04:08:44;;;;;;;;;;;;;;;;;;137565;1272;22510;-83
2023/12/08 04:11:45;;;;;;;;;;;;;;;;;;137537;1272;22494;-82
2023/12/08 04:14:47;;;;;;;;;;;;;;;;;;137212;1272;22505;-80
2023/12/08 04:17:48;;;;;;;;;;;;;;;;;;137162;1272;24194;-78
2023/12/08 04:20:49;;;;;;;;;;;;;;;;;;137313;1272;22508;-81
2023/12/08 04:23:50;;;;;;;;;;;;;;;;;;136927;1272;22941;-79
2023/12/08 04:26:51;;;;;;;;;;;;;;;;;;136895;1272;24402;-79
2023/12/08 04:29:52;;;;;;;;;;;;;;;;;;137557;1268;22601;-79
2023/12/08 04:32:54;;;;;;;;;;;;;;;;;;136943;1268;22551;-78
2023/12/08 04:35:56;;;;;;;;;;;;;;;;;;136766;1272;22551;-79
2023/12/08 04:38:58;;;;;;;;;;;;;;;;;;137648;1272;22950;-81
2023/12/08 04:41:59;;;;;;;;;;;;;;;;;;136935;1263;22501;-79
2023/12/08 04:45:00;;;;;;;;;;;;;;;;;;135557;1272;2699271;-79
2023/12/08 04:48:01;;;;;;;;;;;;;;;;;;137605;1272;22811;-79
2023/12/08 04:51:04;;;;;;;;;;;;;;;;;;137199;1272;22577;-81
2023/12/08 04:54:06;;;;;;;;;;;;;;;;;;136782;1272;22532;-79
2023/12/08 04:57:07;;;;;;;;;;;;;;;;;;137223;1272;22530;-79
2023/12/08 05:00:08;;;;;;;;;;;;;;;;;;137289;1272;22527;-77
2023/12/08 05:03:10;;;;;;;;;;;;;;;;;;136920;1272;22554;-79
2023/12/08 05:06:11;;;;;;;;;;;;;;;;;;136731;1272;24172;-79
2023/12/08 05:09:12;;;;;;;;;;;;;;;;;;137545;1272;22526;-78
2023/12/08 05:12:13;;;;;;;;;;;;;;;;;;136813;1272;22506;-79
2023/12/08 05:15:15;;;;;;;;;;;;;;;;;;137010;1272;22562;-79
2023/12/08 05:18:16;;;;;;;;;;;;;;;;;;137059;1272;22478;-78
2023/12/08 05:21:17;;;;;;;;;;;;;;;;;;137642;1272;22319;-78
2023/12/08 05:24:18;;;;;;;;;;;;;;;;;;137656;1272;22253;-78
2023/12/08 05:27:19;;;;;;;;;;;;;;;;;;137567;1272;22488;-79
2023/12/08 05:30:20;;;;;;;;;;;;;;;;;;137632;1272;22327;-79
2023/12/08 05:33:22;;;;;;;;;;;;;;;;;;137644;1272;22275;-79
2023/12/08 05:36:23;;;;;;;;;;;;;;;;;;137500;1272;22396;-79
2023/12/08 05:39:24;;;;;;;;;;;;;;;;;;137568;1272;22321;-78
2023/12/08 05:42:25;;;;;;;;;;;;;;;;;;137667;1272;22274;-79
2023/12/08 05:45:26;;;;;;;;;;;;;;;;;;137662;1272;22384;-82
2023/12/08 05:48:27;;;;;;;;;;;;;;;;;;137616;1272;22374;-79
2023/12/08 05:51:28;;;;;;;;;;;;;;;;;;137172;1272;22607;-80
2023/12/08 05:54:30;;;;;;;;;;;;;;;;;;137592;1272;22889;-80
2023/12/08 05:57:31;;;;;;;;;;;;;;;;;;137615;1272;22417;-80
2023/12/08 06:00:33;;;;;;;;;;;;;;;;;;137575;1272;23327;-81
2023/12/08 06:03:34;;;;;;;;;;;;;;;;;;137616;1272;22346;-81
2023/12/08 06:06:35;;;;;;;;;;;;;;;;;;137594;1272;22361;-81
2023/12/08 06:09:36;;;;;;;;;;;;;;;;;;137175;1272;22941;-81
2023/12/08 06:12:37;;;;;;;;;;;;;;;;;;136838;1272;22514;-81
2023/12/08 06:15:38;;;;;;;;;;;;;;;;;;137040;1272;25368;-81
2023/12/08 06:18:39;;;;;;;;;;;;;;;;;;137556;1272;22646;-81
2023/12/08 06:21:43;;;;;;;;;;;;;;;;;;137589;1271;22298;-80
2023/12/08 06:24:44;;;;;;;;;;;;;;;;;;137563;1269;22400;-80
2023/12/08 06:27:45;;;;;;;;;;;;;;;;;;137540;1272;22349;-80
2023/12/08 06:30:46;;;;;;;;;;;;;;;;;;137543;1272;22294;-80
2023/12/08 06:33:47;;;;;;;;;;;;;;;;;;137501;1272;22333;-79
2023/12/08 06:36:49;;;;;;;;;;;;;;;;;;137538;1272;22392;-81
2023/12/08 06:39:50;;;;;;;;;;;;;;;;;;137510;1272;22428;-77
2023/12/08 06:42:51;;;;;;;;;;;;;;;;;;137576;1272;22347;-80
2023/12/08 06:45:52;;;;;;;;;;;;;;;;;;137577;1272;22312;-80
2023/12/08 06:48:53;;;;;;;;;;;;;;;;;;137565;1272;22364;-81
2023/12/08 06:51:54;;;;;;;;;;;;;;;;;;137634;1270;22319;-81
2023/12/08 06:54:55;;;;;;;;;;;;;;;;;;137659;1272;22436;-80
2023/12/08 06:57:57;;;;;;;;;;;;;;;;;;137608;1272;22341;-81
2023/12/08 07:00:58;;;;;;;;;;;;;;;;;;137619;1272;22396;-80
2023/12/08 07:03:59;;;;;;;;;;;;;;;;;;137596;1272;22343;-80
2023/12/08 07:07:02;;;;;;;;;;;;;;;;;;137611;1272;22307;-79
2023/12/08 07:10:04;;;;;;;;;;;;;;;;;;137595;1272;22337;-80
2023/12/08 07:13:05;;;;;;;;;;;;;;;;;;137634;1272;22680;-80
2023/12/08 07:16:09;;;;;;;;;;;;;;;;;;137618;1272;22302;-79
2023/12/08 07:19:10;;;;;;;;;;;;;;;;;;137640;1272;22315;-78
2023/12/08 07:22:11;;;;;;;;;;;;;;;;;;136853;1272;22509;-80
2023/12/08 07:25:12;;;;;;;;;;;;;;;;;;137443;1272;22537;-79
2023/12/08 07:28:13;;;;;;;;;;;;;;;;;;137515;1272;22498;-80
2023/12/08 07:31:14;;;;;;;;;;;;;;;;;;137144;1272;23018;-80
2023/12/08 07:34:15;;;;;;;;;;;;;;;;;;137145;1272;22526;-79
2023/12/08 07:37:17;;;;;;;;;;;;;;;;;;137501;1272;22490;-80
2023/12/08 07:40:18;;;;;;;;;;;;;;;;;;137224;1272;22493;-79
2023/12/08 07:43:19;;;;;;;;;;;;;;;;;;137097;1272;22558;-79
2023/12/08 07:46:20;;;;;;;;;;;;;;;;;;137485;1272;22474;-80
2023/12/08 07:49:23;;;;;;;;;;;;;;;;;;137614;1272;22364;-81
2023/12/08 07:52:24;;;;;;;;;;;;;;;;;;137292;1272;22507;-79
2023/12/08 07:55:28;;;;;;;;;;;;;;;;;;137614;1272;22382;-79
2023/12/08 07:58:29;;;;;;;;;;;;;;;;;;137529;1272;22981;-81
2023/12/08 08:01:31;;;;;;;;;;;;;;;;;;137497;1272;22361;-80
2023/12/08 08:04:32;;;;;;;;;;;;;;;;;;137526;1272;22320;-80
2023/12/08 08:07:33;;;;;;;;;;;;;;;;;;137579;1272;22325;-80
2023/12/08 08:10:35;;;;;;;;;;;;;;;;;;137573;1272;22298;-80
2023/12/08 08:13:36;;;;;;;;;;;;;;;;;;137535;1269;23201;-80
2023/12/08 08:16:37;;;;;;;;;;;;;;;;;;137549;1272;22301;-80
2023/12/08 08:19:38;;;;;;;;;;;;;;;;;;137574;1270;22310;-80
2023/12/08 08:22:39;;;;;;;;;;;;;;;;;;137654;1272;22364;-79
2023/12/08 08:25:41;;;;;;;;;;;;;;;;;;137556;1272;22519;-79
2023/12/08 08:28:42;;;;;;;;;;;;;;;;;;136913;1272;22673;-78
2023/12/08 08:31:43;;;;;;;;;;;;;;;;;;137202;1272;22526;-78
2023/12/08 08:34:45;;;;;;;;;;;;;;;;;;137642;1267;22263;-80
2023/12/08 08:37:46;;;;;;;;;;;;;;;;;;137611;1264;22277;-79
2023/12/08 08:40:47;;;;;;;;;;;;;;;;;;136889;1272;22479;-81
2023/12/08 08:43:48;;;;;;;;;;;;;;;;;;137567;1272;22871;-81
2023/12/08 08:46:49;;;;;;;;;;;;;;;;;;137619;1272;22266;-80
2023/12/08 08:49:50;;;;;;;;;;;;;;;;;;137322;1272;22486;-80
2023/12/08 08:52:51;;;;;;;;;;;;;;;;;;137504;1272;22544;-80
2023/12/08 08:55:52;;;;;;;;;;;;;;;;;;137632;1272;22367;-80
2023/12/08 08:58:53;;;;;;;;;;;;;;;;;;137632;1272;22327;-81
2023/12/08 09:01:54;;;;;;;;;;;;;;;;;;137584;1267;22304;-81
2023/12/08 09:04:56;;;;;;;;;;;;;;;;;;137406;1272;22521;-80
2023/12/08 09:07:57;;;;;;;;;;;;;;;;;;137242;1272;22491;-80
2023/12/08 09:10:58;;;;;;;;;;;;;;;;;;137625;1272;23341;-81
2023/12/08 09:13:59;;;;;;;;;;;;;;;;;;137622;1272;22473;-80
2023/12/08 09:17:05;;;;;;;;;;;;;;;;;;137584;1272;22823;-80
2023/12/08 09:20:07;;;;;;;;;;;;;;;;;;137571;1272;22334;-80
2023/12/08 09:23:09;;;;;;;;;;;;;;;;;;137532;1272;22829;-79
2023/12/08 09:26:10;;;;;;;;;;;;;;;;;;137541;1272;22383;-79
2023/12/08 09:29:11;;;;;;;;;;;;;;;;;;137575;1272;22603;-79
2023/12/08 09:32:12;;;;;;;;;;;;;;;;;;137546;1272;22281;-79
2023/12/08 09:35:13;;;;;;;;;;;;;;;;;;137576;1272;22789;-79
2023/12/08 09:38:14;;;;;;;;;;;;;;;;;;137587;1257;22318;-80
2023/12/08 09:41:15;;;;;;;;;;;;;;;;;;137587;1266;22385;-79
2023/12/08 09:44:18;;;;;;;;;;;;;;;;;;137609;1272;22345;-79
2023/12/08 09:47:19;;;;;;;;;;;;;;;;;;137611;1272;23268;-80
2023/12/08 09:50:20;;;;;;;;;;;;;;;;;;137578;1272;22347;-79
2023/12/08 09:53:21;;;;;;;;;;;;;;;;;;137562;1272;22924;-79
2023/12/08 09:56:23;;;;;;;;;;;;;;;;;;137578;1272;22359;-78
2023/12/08 09:59:24;;;;;;;;;;;;;;;;;;137600;1267;22365;-80
2023/12/08 10:02:25;;;;;;;;;;;;;;;;;;137616;1272;22294;-80
2023/12/08 10:05:27;;;;;;;;;;;;;;;;;;137584;1272;22290;-80
2023/12/08 10:08:30;;;;;;;;;;;;;;;;;;137599;1272;22340;-79
2023/12/08 10:11:31;;;;;;;;;;;;;;;;;;137546;1272;22289;-79
2023/12/08 10:14:32;;;;;;;;;;;;;;;;;;137596;1272;22751;-80
2023/12/08 10:17:34;;;;;;;;;;;;;;;;;;137573;1272;22316;-80
2023/12/08 10:20:35;;;;;;;;;;;;;;;;;;137607;1272;22387;-79
2023/12/08 10:23:36;;;;;;;;;;;;;;;;;;137162;1272;22444;-79
2023/12/08 10:26:38;;;;;;;;;;;;;;;;;;137533;1272;23018;-79
2023/12/08 10:29:39;;;;;;;;;;;;;;;;;;136872;1272;22520;-80
2023/12/08 10:32:40;;;;;;;;;;;;;;;;;;136869;1272;22538;-80
2023/12/08 10:35:41;;;;;;;;;;;;;;;;;;137444;1272;22530;-79
2023/12/08 10:38:42;;;;;;;;;;;;;;;;;;137039;1272;22520;-80
2023/12/08 10:41:43;;;;;;;;;;;;;;;;;;136742;1270;22519;-80
2023/12/08 10:44:44;;;;;;;;;;;;;;;;;;137699;1272;22292;-79
2023/12/08 10:47:49;;;;;;;;;;;;;;;;;;137184;1268;22563;-78
2023/12/08 10:50:51;;;;;;;;;;;;;;;;;;137054;1272;23159;-79
2023/12/08 10:53:52;;;;;;;;;;;;;;;;;;137408;1272;22499;-78
2023/12/08 10:56:53;;;;;;;;;;;;;;;;;;137602;1272;22342;-79
2023/12/08 10:59:55;;;;;;;;;;;;;;;;;;137570;1272;22331;-80
2023/12/08 11:02:57;;;;;;;;;;;;;;;;;;137617;1272;22386;-80
2023/12/08 11:05:58;;;;;;;;;;;;;;;;;;137521;1272;22298;-80
2023/12/08 11:09:00;;;;;;;;;;;;;;;;;;137617;1272;22353;-80
2023/12/08 11:12:03;;;;;;;;;;;;;;;;;;137579;1265;22312;-79
2023/12/08 11:15:07;;;;;;;;;;;;;;;;;;137623;1272;22384;-80
2023/12/08 11:18:11;;;;;;;;;;;;;;;;;;137640;1272;22355;-80
2023/12/08 11:21:12;;;;;;;;;;;;;;;;;;137048;1272;22505;-80
2023/12/08 11:24:13;;;;;;;;;;;;;;;;;;137386;1272;22604;-80
2023/12/08 11:27:15;;;;;;;;;;;;;;;;;;137281;1272;22946;-81
2023/12/08 11:30:18;;;;;;;;;;;;;;;;;;137032;1272;22565;-79
2023/12/08 11:33:20;;;;;;;;;;;;;;;;;;137655;1272;22978;-79
2023/12/08 11:36:22;;;;;;;;;;;;;;;;;;137636;1272;22250;-79
2023/12/08 11:39:26;;;;;;;;;;;;;;;;;;137593;1272;22431;-78
2023/12/08 11:42:27;;;;;;;;;;;;;;;;;;137577;1272;22465;-77
2023/12/08 11:45:29;;;;;;;;;;;;;;;;;;137564;1272;22528;-78
2023/12/08 11:48:30;;;;;;;;;;;;;;;;;;137627;1272;22341;-78
2023/12/08 11:51:31;;;;;;;;;;;;;;;;;;137592;1272;22307;-79
2023/12/08 11:54:32;;;;;;;;;;;;;;;;;;137589;1272;22871;-77
2023/12/08 11:57:37;;;;;;;;;;;;;;;;;;137588;1272;22711;-77
2023/12/08 12:00:38;;;;;;;;;;;;;;;;;;137576;1272;22368;-77
2023/12/08 12:03:39;;;;;;;;;;;;;;;;;;137588;1268;22365;-77
2023/12/08 12:06:40;;;;;;;;;;;;;;;;;;137620;1267;22289;-78
2023/12/08 12:09:42;;;;;;;;;;;;;;;;;;137591;1253;22337;-77
2023/12/08 12:12:43;;;;;;;;;;;;;;;;;;137630;1272;22317;-77
2023/12/08 12:15:44;;;;;;;;;;;;;;;;;;137645;1268;22347;-78
2023/12/08 12:18:47;;;;;;;;;;;;;;;;;;137574;1270;22653;-78
2023/12/08 12:21:49;;;;;;;;;;;;;;;;;;137629;1272;22893;-78
2023/12/08 12:24:50;;;;;;;;;;;;;;;;;;137551;1272;22497;-78
2023/12/08 12:27:52;;;;;;;;;;;;;;;;;;137546;1272;22337;-77
2023/12/08 12:30:53;;;;;;;;;;;;;;;;;;137567;1272;23393;-78
2023/12/08 12:33:54;;;;;;;;;;;;;;;;;;137629;1272;22295;-77
2023/12/08 12:36:55;;;;;;;;;;;;;;;;;;137537;1272;23108;-79
2023/12/08 12:39:56;;;;;;;;;;;;;;;;;;137564;1272;22312;-79
2023/12/08 12:42:58;;;;;;;;;;;;;;;;;;137560;1272;22339;-77
2023/12/08 12:46:00;;;;;;;;;;;;;;;;;;137613;1272;22308;-77
2023/12/08 12:49:02;;;;;;;;;;;;;;;;;;137620;1261;22274;-77
2023/12/08 12:52:03;;;;;;;;;;;;;;;;;;137609;1272;22781;-77
2023/12/08 12:55:04;;;;;;;;;;;;;;;;;;137351;1272;22544;-78
2023/12/08 12:58:05;;;;;;;;;;;;;;;;;;137654;1272;22684;-79
2023/12/08 13:01:06;;;;;;;;;;;;;;;;;;136684;1272;22499;-78
2023/12/08 13:04:08;;;;;;;;;;;;;;;;;;136705;1272;22628;-78
2023/12/08 13:07:09;;;;;;;;;;;;;;;;;;137694;1272;22310;-76
2023/12/08 13:10:10;;;;;;;;;;;;;;;;;;137648;1272;22300;-79
2023/12/08 13:13:12;;;;;;;;;;;;;;;;;;137678;1272;22401;-80
2023/12/08 13:16:13;;;;;;;;;;;;;;;;;;137581;1272;22279;-80
2023/12/08 13:19:14;;;;;;;;;;;;;;;;;;137564;1272;22277;-78
2023/12/08 13:22:16;;;;;;;;;;;;;;;;;;137570;1272;22355;-78
2023/12/08 13:25:17;;;;;;;;;;;;;;;;;;137597;1272;22391;-79
2023/12/08 13:28:18;;;;;;;;;;;;;;;;;;137573;1272;22365;-79
2023/12/08 13:31:19;;;;;;;;;;;;;;;;;;137538;1268;22942;-81
2023/12/08 13:34:20;;;;;;;;;;;;;;;;;;137606;1272;22908;-81
2023/12/08 13:37:21;;;;;;;;;;;;;;;;;;137586;1272;22229;-82
2023/12/08 13:40:25;;;;;;;;;;;;;;;;;;137588;1272;22349;-79
2023/12/08 13:43:26;;;;;;;;;;;;;;;;;;137641;1272;22726;-76
2023/12/08 13:46:27;;;;;;;;;;;;;;;;;;137594;1272;22346;-77
2023/12/08 13:49:28;;;;;;;;;;;;;;;;;;137586;1272;22285;-78
2023/12/08 13:52:30;;;;;;;;;;;;;;;;;;137603;1272;22429;-79
2023/12/08 13:55:32;;;;;;;;;;;;;;;;;;137627;1270;23320;-79
2023/12/08 13:58:34;;;;;;;;;;;;;;;;;;137610;1272;22295;-79
2023/12/08 14:01:36;;;;;;;;;;;;;;;;;;137618;1272;22310;-79
2023/12/08 14:04:37;;;;;;;;;;;;;;;;;;137605;1272;22364;-79
2023/12/08 14:07:38;;;;;;;;;;;;;;;;;;137605;1272;22997;-78
2023/12/08 14:10:39;;;;;;;;;;;;;;;;;;137646;1272;22351;-78
2023/12/08 14:13:40;;;;;;;;;;;;;;;;;;137598;1272;22327;-78
2023/12/08 14:16:41;;;;;;;;;;;;;;;;;;137630;1272;22278;-77
2023/12/08 14:19:43;;;;;;;;;;;;;;;;;;137610;1272;22321;-78
2023/12/08 14:22:44;;;;;;;;;;;;;;;;;;137554;1272;22303;-76
2023/12/08 14:25:45;;;;;;;;;;;;;;;;;;137578;1272;22398;-78
2023/12/08 14:28:46;;;;;;;;;;;;;;;;;;137511;1262;22324;-78
2023/12/08 14:31:47;;;;;;;;;;;;;;;;;;137552;1272;22364;-78
2023/12/08 14:34:48;;;;;;;;;;;;;;;;;;137593;1272;22268;-77
2023/12/08 14:37:49;;;;;;;;;;;;;;;;;;137548;1272;22326;-77
2023/12/08 14:40:50;;;;;;;;;;;;;;;;;;137604;1272;22396;-80
2023/12/08 14:43:51;;;;;;;;;;;;;;;;;;137609;1272;22349;-78
2023/12/08 14:46:52;;;;;;;;;;;;;;;;;;137642;1272;22334;-78
2023/12/08 14:49:54;;;;;;;;;;;;;;;;;;137099;1272;22955;-79
2023/12/08 14:52:55;;;;;;;;;;;;;;;;;;137077;1272;22497;-79
2023/12/08 14:55:56;;;;;;;;;;;;;;;;;;137617;1272;22401;-79
2023/12/08 14:58:57;;;;;;;;;;;;;;;;;;137657;1260;22293;-79
2023/12/08 15:01:58;;;;;;;;;;;;;;;;;;137645;1272;22688;-80
2023/12/08 15:04:59;;;;;;;;;;;;;;;;;;137642;1272;22319;-79
2023/12/08 15:08:00;;;;;;;;;;;;;;;;;;137635;1272;23207;-79
2023/12/08 15:11:01;;;;;;;;;;;;;;;;;;137644;1272;22316;-79
2023/12/08 15:14:03;;;;;;;;;;;;;;;;;;136948;1272;22510;-79
2023/12/08 15:17:04;;;;;;;;;;;;;;;;;;137414;1272;22487;-78
2023/12/08 15:20:05;;;;;;;;;;;;;;;;;;136904;1268;22516;-78
2023/12/08 15:23:06;;;;;;;;;;;;;;;;;;137243;1272;25213;-79
2023/12/08 15:26:08;;;;;;;;;;;;;;;;;;137279;1267;22480;-77
2023/12/08 15:29:09;;;;;;;;;;;;;;;;;;137681;1272;22268;-78
2023/12/08 15:32:10;;;;;;;;;;;;;;;;;;137612;1272;22336;-79
2023/12/08 15:35:12;;;;;;;;;;;;;;;;;;137633;1272;22355;-78
2023/12/08 15:38:13;;;;;;;;;;;;;;;;;;137619;1272;22328;-79
2023/12/08 15:41:17;;;;;;;;;;;;;;;;;;137291;1272;22489;-79
2023/12/08 15:44:18;;;;;;;;;;;;;;;;;;137630;1272;22287;-78
2023/12/08 15:47:19;;;;;;;;;;;;;;;;;;137581;1272;22330;-78
2023/12/08 15:50:20;;;;;;;;;;;;;;;;;;137592;1272;22369;-78
2023/12/08 15:53:21;;;;;;;;;;;;;;;;;;137368;1272;22567;-79
2023/12/08 15:56:22;;;;;;;;;;;;;;;;;;137337;1266;22910;-79
2023/12/08 15:59:23;;;;;;;;;;;;;;;;;;137624;1272;22274;-79
2023/12/08 16:02:24;;;;;;;;;;;;;;;;;;137097;1272;22485;-79
2023/12/08 16:05:25;;;;;;;;;;;;;;;;;;137624;1272;22842;-79
2023/12/08 16:08:27;;;;;;;;;;;;;;;;;;137615;1258;22308;-77
2023/12/08 16:11:31;;;;;;;;;;;;;;;;;;137578;1272;22337;-79
2023/12/08 16:14:32;;;;;;;;;;;;;;;;;;137595;1272;22335;-79
2023/12/08 16:17:33;;;;;;;;;;;;;;;;;;137393;1272;22502;-79
2023/12/08 16:20:35;;;;;;;;;;;;;;;;;;137118;1265;22610;-79
2023/12/08 16:23:36;;;;;;;;;;;;;;;;;;137623;1272;22347;-78
2023/12/08 16:26:37;;;;;;;;;;;;;;;;;;137601;1272;22566;-78
2023/12/08 16:29:38;;;;;;;;;;;;;;;;;;136899;1272;22491;-78
2023/12/08 16:32:39;;;;;;;;;;;;;;;;;;137076;1272;22569;-78
2023/12/08 16:35:41;;;;;;;;;;;;;;;;;;137571;1272;22520;-79
2023/12/08 16:38:42;;;;;;;;;;;;;;;;;;136970;1272;22482;-79
2023/12/08 16:41:47;;;;;;;;;;;;;;;;;;136932;1272;22508;-79
2023/12/08 16:44:51;;;;;;;;;;;;;;;;;;137190;1272;123199;-80
2023/12/08 16:47:59;;;;;;;;;;;;;;;;;;137297;1272;22500;-79
2023/12/08 16:51:00;;;;;;;;;;;;;;;;;;136989;1272;22518;-79
2023/12/08 16:54:01;;;;;;;;;;;;;;;;;;137067;1272;22519;-78
2023/12/08 16:57:02;;;;;;;;;;;;;;;;;;137651;1272;22323;-79
2023/12/08 17:00:03;;;;;;;;;;;;;;;;;;137029;1272;23160;-80
2023/12/08 17:03:07;;;;;;;;;;;;;;;;;;137093;1272;22852;-79
2023/12/08 17:06:09;;;;;;;;;;;;;;;;;;137633;1272;22736;-80
2023/12/08 17:09:10;;;;;;;;;;;;;;;;;;137566;1272;22518;-79
2023/12/08 17:12:11;;;;;;;;;;;;;;;;;;137308;1272;22501;-79
2023/12/08 17:15:13;;;;;;;;;;;;;;;;;;137675;1272;22309;-79
2023/12/08 17:18:14;;;;;;;;;;;;;;;;;;137613;1272;22355;-79
2023/12/08 17:21:16;;;;;;;;;;;;;;;;;;137560;1272;22502;-79
2023/12/08 17:24:18;;;;;;;;;;;;;;;;;;137567;1272;22647;-78
2023/12/08 17:27:19;;;;;;;;;;;;;;;;;;137635;1272;22332;-79
2023/12/08 17:30:20;;;;;;;;;;;;;;;;;;136836;1272;22510;-79
2023/12/08 17:33:21;;;;;;;;;;;;;;;;;;136776;1272;22548;-78
2023/12/08 17:36:22;;;;;;;;;;;;;;;;;;137252;1272;22483;-80
2023/12/08 17:39:23;;;;;;;;;;;;;;;;;;137098;1272;22492;-80
2023/12/08 17:42:24;;;;;;;;;;;;;;;;;;137259;1272;22507;-80
2023/12/08 17:45:25;;;;;;;;;;;;;;;;;;137660;1272;22378;-78
2023/12/08 17:48:27;;;;;;;;;;;;;;;;;;137247;1272;22486;-80
2023/12/08 17:51:28;;;;;;;;;;;;;;;;;;136978;1272;22488;-79
2023/12/08 17:54:29;;;;;;;;;;;;;;;;;;137629;1272;23091;-78
2023/12/08 17:57:30;;;;;;;;;;;;;;;;;;137645;1268;22334;-80
2023/12/08 18:00:31;;;;;;;;;;;;;;;;;;137646;1272;22914;-80
2023/12/08 18:03:32;;;;;;;;;;;;;;;;;;137628;1272;22292;-79
2023/12/08 18:06:34;;;;;;;;;;;;;;;;;;137635;1272;22275;-78
2023/12/08 18:09:35;;;;;;;;;;;;;;;;;;136928;1272;22606;-78
2023/12/08 18:12:37;;;;;;;;;;;;;;;;;;136914;1272;22494;-77
2023/12/08 18:15:39;;;;;;;;;;;;;;;;;;137616;1272;22295;-77
2023/12/08 18:18:40;;;;;;;;;;;;;;;;;;137621;1272;22314;-76
2023/12/08 18:21:41;;;;;;;;;;;;;;;;;;137612;1272;22648;-70
2023/12/08 18:24:42;;;;;;;;;;;;;;;;;;137601;1272;22867;-77
2023/12/08 18:27:43;;;;;;;;;;;;;;;;;;137632;1272;22313;-77
2023/12/08 18:30:44;;;;;;;;;;;;;;;;;;137607;1272;22337;-77
2023/12/08 18:33:45;;;;;;;;;;;;;;;;;;137597;1272;22326;-77
2023/12/08 18:36:46;;;;;;;;;;;;;;;;;;137579;1272;22874;-77
2023/12/08 18:39:47;;;;;;;;;;;;;;;;;;137610;1272;22375;-77
2023/12/08 18:42:48;;;;;;;;;;;;;;;;;;137494;1272;22936;-77
2023/12/08 18:45:50;;;;;;;;;;;;;;;;;;137628;1272;22734;-75
2023/12/08 18:48:51;;;;;;;;;;;;;;;;;;137591;1272;22381;-76
2023/12/08 18:51:52;;;;;;;;;;;;;;;;;;137657;1268;22293;-76
2023/12/08 18:54:53;;;;;;;;;;;;;;;;;;137618;1272;22376;-77
2023/12/08 18:57:54;;;;;;;;;;;;;;;;;;137584;1272;22333;-77
2023/12/08 19:00:55;;;;;;;;;;;;;;;;;;137626;1272;22295;-77
2023/12/08 19:03:56;;;;;;;;;;;;;;;;;;137220;1272;22533;-79
2023/12/08 19:07:00;;;;;;;;;;;;;;;;;;137409;1272;22507;-78
2023/12/08 19:10:01;;;;;;;;;;;;;;;;;;136981;1272;22516;-78
2023/12/08 19:13:03;;;;;;;;;;;;;;;;;;136735;1272;22630;-76
2023/12/08 19:16:04;;;;;;;;;;;;;;;;;;137657;1272;22521;-79
2023/12/08 19:19:06;;;;;;;;;;;;;;;;;;137134;1272;22530;-77
2023/12/08 19:22:07;;;;;;;;;;;;;;;;;;136922;1272;22503;-78
2023/12/08 19:25:08;;;;;;;;;;;;;;;;;;137638;1272;22473;-78
2023/12/08 19:28:09;;;;;;;;;;;;;;;;;;137155;1272;22936;-78
2023/12/08 19:31:10;;;;;;;;;;;;;;;;;;136999;1272;22552;-78
2023/12/08 19:34:11;;;;;;;;;;;;;;;;;;137582;1272;24344;-79
2023/12/08 19:37:13;;;;;;;;;;;;;;;;;;137209;1272;22528;-78
2023/12/08 19:40:14;;;;;;;;;;;;;;;;;;136937;1272;22520;-78
2023/12/08 19:43:15;;;;;;;;;;;;;;;;;;136925;1272;24241;-79
2023/12/08 19:46:16;;;;;;;;;;;;;;;;;;137450;1272;22502;-77
2023/12/08 19:49:17;;;;;;;;;;;;;;;;;;136933;1268;22524;-77
2023/12/08 19:52:19;;;;;;;;;;;;;;;;;;136946;1272;22549;-76
2023/12/08 19:55:20;;;;;;;;;;;;;;;;;;137660;1272;22530;-76
2023/12/08 19:58:21;;;;;;;;;;;;;;;;;;136912;1272;22514;-76
2023/12/08 20:01:22;;;;;;;;;;;;;;;;;;136982;1272;22653;-76
2023/12/08 20:04:23;;;;;;;;;;;;;;;;;;137366;1272;22514;-77
2023/12/08 20:07:24;;;;;;;;;;;;;;;;;;137176;1272;22512;-76
2023/12/08 20:10:26;;;;;;;;;;;;;;;;;;136917;1272;22544;-77
2023/12/08 20:13:27;;;;;;;;;;;;;;;;;;137205;1272;22519;-77
2023/12/08 20:16:28;;;;;;;;;;;;;;;;;;137495;1272;22615;-76